Airport ICAO


17:55 UTC

14°C

Broken clouds


An affordable passengers' Moving Map for your aircraft. Made for the iPad and the iPhone
More information here

EGMD Lydd


Lydd UNITED KINGDOM   VFR


METAR EGMD 171750Z AUTO VRB03KT 9999 BKN032/// 14/12 Q1021 0h05min

TAF EGMD 171659Z 1718/1803 01008KT 9999 FEW030 PROB30 TEMPO 1720/1724 BKN012 0h56min





NOTAMS

OPEN